Makaweli, Hawaii
Current Conditions -  °F | °C
As of 4:56 PM on Saturday 22 Nov 2014 (Local Time) from PHBK Reporting Station
Overcast Overcast  
Wind Chill: 80°   Ceiling: 4900
Heat Index: 83°   Visibility: 10mi
Dew Point: 68°   Wind: 8mph
Humidity: 67%   Direction: 190°S
Pressure: 29.98"   Gusts: NA
Location:  21.9°N, 159.65°W
Report Text: PHBK 230256Z AUTO 19007KT 10SM OVC049 27/20 A2998 RMK AO2 SLP154 T02670200 55004
Loading
Personal Weather Stations






























Interactive Weather Map New forecast layout! Learn more

10-Day Weather Forecast

Advertisements
Track Severe Weather on mobile